createdAt,value
2017-11-04T00:02:08.402Z,67.17
2017-11-04T00:04:41.905Z,66.17
2017-11-04T00:07:20.119Z,64.07
2017-11-04T00:09:52.342Z,43.67
2017-11-04T00:12:25.434Z,54.03
2017-11-04T00:14:58.685Z,57.97
2017-11-04T00:17:32.126Z,68.03
2017-11-04T00:20:22.713Z,51.47
2017-11-04T00:22:56.597Z,63.73
2017-11-04T00:25:41.462Z,69.10
2017-11-04T00:28:22.058Z,67.97
2017-11-04T00:30:55.314Z,51.57
2017-11-04T00:33:27.067Z,59.60
2017-11-04T00:36:03.784Z,64.00
2017-11-04T00:38:37.385Z,72.40
2017-11-04T00:41:19.372Z,61.97
2017-11-04T00:43:54.710Z,62.33
2017-11-04T00:46:27.743Z,53.87
2017-11-04T00:49:00.347Z,51.17
2017-11-04T00:51:34.405Z,61.53
2017-11-04T00:54:09.898Z,61.87
2017-11-04T00:56:43.678Z,100.70
2017-11-04T00:59:18.970Z,64.60
2017-11-04T01:01:53.390Z,97.77
2017-11-04T01:04:25.664Z,55.23
2017-11-04T01:07:05.098Z,68.57
2017-11-04T01:09:37.851Z,49.70
2017-11-04T01:12:19.682Z,54.43
2017-11-04T01:14:52.737Z,52.80
2017-11-04T01:17:36.234Z,54.27
2017-11-04T01:20:17.735Z,62.90
2017-11-04T01:22:51.574Z,67.40
2017-11-04T01:25:34.793Z,66.17
2017-11-04T01:28:09.132Z,37.60
2017-11-04T01:30:43.740Z,43.37
2017-11-04T01:33:21.138Z,66.93
2017-11-04T01:35:53.977Z,54.00
2017-11-04T01:38:32.013Z,52.50
2017-11-04T01:41:04.947Z,49.23
2017-11-04T01:43:39.341Z,82.00
2017-11-04T01:46:15.053Z,47.03
2017-11-04T01:48:48.187Z,98.00
2017-11-04T01:51:21.143Z,50.67
2017-11-04T01:53:51.244Z,81.13
2017-11-04T01:56:25.533Z,93.27
2017-11-04T01:58:58.480Z,108.57
2017-11-04T02:01:33.073Z,59.93
2017-11-04T02:04:11.144Z,42.00
2017-11-04T02:06:45.306Z,55.53
2017-11-04T02:09:22.386Z,47.87
2017-11-04T02:12:00.258Z,40.17
2017-11-04T02:14:35.799Z,47.23
2017-11-04T02:17:14.966Z,53.50
2017-11-04T02:19:48.386Z,51.17
2017-11-04T02:22:22.943Z,51.67
2017-11-04T02:25:04.662Z,51.90
2017-11-04T02:27:37.543Z,49.60
2017-11-04T02:30:17.891Z,51.27
2017-11-04T02:32:50.689Z,44.37
2017-11-04T02:35:30.610Z,49.30
2017-11-04T02:38:04.860Z,42.90
2017-11-04T02:40:37.115Z,49.27
2017-11-04T02:43:14.251Z,56.23
2017-11-04T02:45:47.888Z,58.90
2017-11-04T02:48:21.170Z,65.43
2017-11-04T02:50:54.572Z,59.03
2017-11-04T02:53:25.876Z,59.90
2017-11-04T02:55:58.289Z,63.27
2017-11-04T02:58:31.703Z,39.17
2017-11-04T03:01:04.764Z,35.33
2017-11-04T03:03:37.508Z,41.60
2017-11-04T03:06:17.116Z,42.77
2017-11-04T03:08:49.606Z,48.80
2017-11-04T03:11:26.621Z,47.50
2017-11-04T03:14:00.052Z,43.73
2017-11-04T03:16:32.282Z,44.90
2017-11-04T03:19:06.588Z,43.27
2017-11-04T03:21:40.393Z,51.63
2017-11-04T03:24:17.655Z,49.57
2017-11-04T03:26:51.761Z,43.77
2017-11-04T03:29:25.102Z,41.93
2017-11-04T03:31:57.545Z,54.50
2017-11-04T03:34:29.244Z,56.70
2017-11-04T03:37:04.766Z,53.97
2017-11-04T03:39:37.339Z,57.73
2017-11-04T03:42:16.759Z,52.67
2017-11-04T03:44:48.657Z,56.10
2017-11-04T03:47:20.779Z,55.57
2017-11-04T03:49:52.744Z,65.50
2017-11-04T03:52:25.234Z,66.17
2017-11-04T03:54:57.531Z,84.77
2017-11-04T03:57:29.313Z,79.17
2017-11-04T04:00:02.027Z,88.30
2017-11-04T04:02:33.880Z,83.03
2017-11-04T04:05:15.216Z,88.60
2017-11-04T04:07:47.499Z,78.87
2017-11-04T04:10:23.770Z,73.00
2017-11-04T04:12:57.029Z,73.40
2017-11-04T04:15:28.766Z,70.07
2017-11-04T04:18:02.508Z,71.77
2017-11-04T04:20:35.110Z,75.77
2017-11-04T04:23:13.611Z,71.67
2017-11-04T04:25:47.402Z,74.70
2017-11-04T04:28:20.954Z,76.27
2017-11-04T04:30:54.216Z,73.60
2017-11-04T04:33:26.535Z,72.07
2017-11-04T04:36:00.351Z,76.70
2017-11-04T04:38:33.342Z,70.40
2017-11-04T04:41:18.827Z,72.77
2017-11-04T04:43:51.523Z,78.80
2017-11-04T04:46:24.112Z,82.83
2017-11-04T04:48:57.888Z,80.50
2017-11-04T04:51:29.105Z,82.50
2017-11-04T04:53:59.605Z,75.77
2017-11-04T04:56:30.437Z,81.87
2017-11-04T04:59:05.573Z,87.63
2017-11-04T05:01:38.303Z,76.47
2017-11-04T05:04:12.937Z,84.33
2017-11-04T05:06:44.624Z,76.43
2017-11-04T05:09:20.924Z,81.73
2017-11-04T05:11:53.710Z,81.97
2017-11-04T05:14:26.896Z,86.03
2017-11-04T05:16:57.678Z,77.33
2017-11-04T05:19:30.600Z,82.00
2017-11-04T05:22:06.437Z,73.00
2017-11-04T05:24:39.444Z,77.67
2017-11-04T05:27:16.975Z,78.87
2017-11-04T05:29:49.225Z,73.43
2017-11-04T05:32:25.749Z,84.43
2017-11-04T05:34:57.798Z,78.57
2017-11-04T05:37:28.906Z,76.53
2017-11-04T05:39:59.949Z,76.13
2017-11-04T05:42:30.145Z,69.23
2017-11-04T05:45:04.938Z,89.40
2017-11-04T05:47:36.585Z,83.07
2017-11-04T05:50:11.335Z,83.17
2017-11-04T05:52:44.581Z,77.23
2017-11-04T05:55:17.067Z,76.43
2017-11-04T05:57:49.246Z,72.60
2017-11-04T06:00:21.841Z,74.30
2017-11-04T06:02:55.217Z,72.30
2017-11-04T06:05:31.807Z,68.30
2017-11-04T06:08:06.809Z,70.87
2017-11-04T06:10:38.903Z,69.47
2017-11-04T06:13:15.899Z,65.00
2017-11-04T06:15:53.089Z,64.93
2017-11-04T06:18:25.508Z,68.27
2017-11-04T06:21:00.167Z,64.10
2017-11-04T06:23:34.908Z,63.70
2017-11-04T06:26:10.885Z,68.57
2017-11-04T06:28:45.360Z,68.60
2017-11-04T06:31:21.969Z,65.00
2017-11-04T06:33:54.849Z,62.80
2017-11-04T06:36:36.585Z,59.47
2017-11-04T06:39:18.921Z,58.77
2017-11-04T06:41:50.985Z,55.97
2017-11-04T06:44:23.846Z,56.17
2017-11-04T06:46:56.475Z,54.40
2017-11-04T06:49:29.244Z,53.57
2017-11-04T06:52:14.617Z,61.07
2017-11-04T06:54:45.599Z,59.37
2017-11-04T06:57:21.453Z,54.23
2017-11-04T06:59:53.884Z,53.57
2017-11-04T07:02:29.304Z,50.40
2017-11-04T07:05:09.102Z,51.90
2017-11-04T07:07:40.053Z,49.90
2017-11-04T07:10:17.868Z,50.10
2017-11-04T07:12:51.003Z,48.93
2017-11-04T07:15:26.825Z,48.20
2017-11-04T07:17:59.532Z,47.23
2017-11-04T07:20:31.845Z,48.23
2017-11-04T07:23:07.066Z,47.43
2017-11-04T07:25:37.615Z,45.47
2017-11-04T07:28:16.586Z,44.03
2017-11-04T07:30:50.251Z,44.90
2017-11-04T07:33:28.574Z,42.97
2017-11-04T07:36:02.496Z,41.83
2017-11-04T07:38:34.452Z,41.60
2017-11-04T07:41:08.987Z,42.17
2017-11-04T07:43:45.568Z,40.60
2017-11-04T07:46:18.094Z,41.30
2017-11-04T07:48:52.400Z,40.33
2017-11-04T07:51:29.066Z,42.27
2017-11-04T07:54:14.980Z,42.33
2017-11-04T07:56:47.925Z,41.17
2017-11-04T07:59:24.345Z,41.20
2017-11-04T08:01:55.640Z,42.63
2017-11-04T08:04:28.283Z,40.53
2017-11-04T08:07:06.121Z,42.17
2017-11-04T08:09:38.465Z,40.77
2017-11-04T08:12:20.078Z,38.10
2017-11-04T08:14:54.331Z,37.77
2017-11-04T08:17:27.927Z,39.27
2017-11-04T08:20:02.285Z,37.60
2017-11-04T08:22:34.928Z,37.27
2017-11-04T08:25:16.810Z,39.17
2017-11-04T08:27:52.250Z,37.63
2017-11-04T08:30:29.613Z,38.70
2017-11-04T08:33:07.356Z,35.40
2017-11-04T08:35:39.954Z,37.77
2017-11-04T23:52:13.058Z,35.53
2017-11-04T23:54:45.054Z,35.27
2017-11-04T23:57:15.513Z,36.57
2017-11-04T23:59:44.106Z,34.83
